sensor_id;sensor_type;location;lat;lon;timestamp;P1;durP1;ratioP1;P2;durP2;ratioP2
76837;SDS011;65797;47.352;8.164;2023-11-22T00:00:08;3.23;;;1.70;;
76837;SDS011;65797;47.352;8.164;2023-11-22T00:02:35;2.83;;;1.80;;
76837;SDS011;65797;47.352;8.164;2023-11-22T00:05:00;2.07;;;1.80;;
76837;SDS011;65797;47.352;8.164;2023-11-22T00:07:28;4.20;;;2.00;;
76837;SDS011;65797;47.352;8.164;2023-11-22T00:09:54;2.83;;;1.90;;
76837;SDS011;65797;47.352;8.164;2023-11-22T00:12:21;1.93;;;1.83;;
76837;SDS011;65797;47.352;8.164;2023-11-22T00:14:48;2.20;;;2.00;;
76837;SDS011;65797;47.352;8.164;2023-11-22T00:17:14;2.37;;;1.90;;
76837;SDS011;65797;47.352;8.164;2023-11-22T00:19:42;1.97;;;1.77;;
76837;SDS011;65797;47.352;8.164;2023-11-22T00:22:10;2.57;;;2.30;;
76837;SDS011;65797;47.352;8.164;2023-11-22T00:24:39;5.47;;;2.70;;
76837;SDS011;65797;47.352;8.164;2023-11-22T00:27:06;3.77;;;2.40;;
76837;SDS011;65797;47.352;8.164;2023-11-22T00:29:32;6.07;;;2.43;;
76837;SDS011;65797;47.352;8.164;2023-11-22T00:31:58;2.97;;;2.50;;
76837;SDS011;65797;47.352;8.164;2023-11-22T00:34:24;2.70;;;2.50;;
76837;SDS011;65797;47.352;8.164;2023-11-22T00:36:50;4.00;;;2.63;;
76837;SDS011;65797;47.352;8.164;2023-11-22T00:39:18;3.60;;;2.50;;
76837;SDS011;65797;47.352;8.164;2023-11-22T00:41:44;4.53;;;2.33;;
76837;SDS011;65797;47.352;8.164;2023-11-22T00:44:10;3.00;;;2.70;;
76837;SDS011;65797;47.352;8.164;2023-11-22T00:46:37;4.10;;;2.90;;
76837;SDS011;65797;47.352;8.164;2023-11-22T00:49:03;3.17;;;2.60;;
76837;SDS011;65797;47.352;8.164;2023-11-22T00:51:33;2.70;;;2.50;;
76837;SDS011;65797;47.352;8.164;2023-11-22T00:53:59;2.10;;;2.00;;
76837;SDS011;65797;47.352;8.164;2023-11-22T00:56:25;3.00;;;2.80;;
76837;SDS011;65797;47.352;8.164;2023-11-22T00:58:51;5.00;;;3.00;;
76837;SDS011;65797;47.352;8.164;2023-11-22T01:01:18;7.77;;;2.40;;
76837;SDS011;65797;47.352;8.164;2023-11-22T01:03:44;2.40;;;2.20;;
76837;SDS011;65797;47.352;8.164;2023-11-22T01:06:11;2.33;;;2.20;;
76837;SDS011;65797;47.352;8.164;2023-11-22T01:08:37;4.30;;;2.33;;
76837;SDS011;65797;47.352;8.164;2023-11-22T01:11:03;4.40;;;2.60;;
76837;SDS011;65797;47.352;8.164;2023-11-22T01:13:30;12.60;;;2.70;;
76837;SDS011;65797;47.352;8.164;2023-11-22T01:15:57;4.23;;;2.37;;
76837;SDS011;65797;47.352;8.164;2023-11-22T01:18:23;5.93;;;2.50;;
76837;SDS011;65797;47.352;8.164;2023-11-22T01:20:49;2.40;;;2.20;;
76837;SDS011;65797;47.352;8.164;2023-11-22T01:23:15;6.80;;;2.40;;
76837;SDS011;65797;47.352;8.164;2023-11-22T01:25:43;7.43;;;2.50;;
76837;SDS011;65797;47.352;8.164;2023-11-22T01:28:08;6.23;;;2.67;;
76837;SDS011;65797;47.352;8.164;2023-11-22T01:30:36;2.60;;;2.40;;
76837;SDS011;65797;47.352;8.164;2023-11-22T01:33:03;6.20;;;2.63;;
76837;SDS011;65797;47.352;8.164;2023-11-22T01:35:29;4.13;;;2.57;;
76837;SDS011;65797;47.352;8.164;2023-11-22T01:37:55;2.73;;;2.50;;
76837;SDS011;65797;47.352;8.164;2023-11-22T01:40:23;4.63;;;3.30;;
76837;SDS011;65797;47.352;8.164;2023-11-22T01:42:49;3.57;;;2.57;;
76837;SDS011;65797;47.352;8.164;2023-11-22T01:45:15;8.90;;;2.90;;
76837;SDS011;65797;47.352;8.164;2023-11-22T01:47:41;4.60;;;3.30;;
76837;SDS011;65797;47.352;8.164;2023-11-22T01:50:07;3.43;;;3.00;;
76837;SDS011;65797;47.352;8.164;2023-11-22T01:52:33;4.40;;;3.07;;
76837;SDS011;65797;47.352;8.164;2023-11-22T01:55:00;9.83;;;3.10;;
76837;SDS011;65797;47.352;8.164;2023-11-22T01:57:30;15.70;;;3.90;;
76837;SDS011;65797;47.352;8.164;2023-11-22T01:59:58;4.50;;;3.70;;
76837;SDS011;65797;47.352;8.164;2023-11-22T02:02:25;11.17;;;4.03;;
76837;SDS011;65797;47.352;8.164;2023-11-22T02:04:51;5.07;;;4.57;;
76837;SDS011;65797;47.352;8.164;2023-11-22T02:07:20;7.03;;;3.50;;
76837;SDS011;65797;47.352;8.164;2023-11-22T02:09:49;5.90;;;3.20;;
76837;SDS011;65797;47.352;8.164;2023-11-22T02:12:15;5.77;;;3.20;;
76837;SDS011;65797;47.352;8.164;2023-11-22T02:14:41;7.60;;;3.23;;
76837;SDS011;65797;47.352;8.164;2023-11-22T02:17:06;4.90;;;3.80;;
76837;SDS011;65797;47.352;8.164;2023-11-22T02:19:32;5.70;;;4.40;;
76837;SDS011;65797;47.352;8.164;2023-11-22T02:21:58;8.90;;;3.97;;
76837;SDS011;65797;47.352;8.164;2023-11-22T02:24:24;7.47;;;3.57;;
76837;SDS011;65797;47.352;8.164;2023-11-22T02:26:51;4.80;;;3.90;;
76837;SDS011;65797;47.352;8.164;2023-11-22T02:29:17;6.33;;;3.90;;
76837;SDS011;65797;47.352;8.164;2023-11-22T02:31:43;4.30;;;3.30;;
76837;SDS011;65797;47.352;8.164;2023-11-22T02:34:09;11.10;;;4.10;;
76837;SDS011;65797;47.352;8.164;2023-11-22T02:36:35;6.10;;;4.27;;
76837;SDS011;65797;47.352;8.164;2023-11-22T02:39:01;5.53;;;3.70;;
76837;SDS011;65797;47.352;8.164;2023-11-22T02:41:27;4.30;;;3.87;;
76837;SDS011;65797;47.352;8.164;2023-11-22T02:43:54;5.57;;;3.87;;
76837;SDS011;65797;47.352;8.164;2023-11-22T02:46:24;5.33;;;3.83;;
76837;SDS011;65797;47.352;8.164;2023-11-22T02:48:51;4.77;;;3.97;;
76837;SDS011;65797;47.352;8.164;2023-11-22T02:51:19;20.53;;;3.60;;
76837;SDS011;65797;47.352;8.164;2023-11-22T02:53:46;5.80;;;3.53;;
76837;SDS011;65797;47.352;8.164;2023-11-22T02:56:13;5.60;;;3.37;;
76837;SDS011;65797;47.352;8.164;2023-11-22T02:58:40;7.07;;;3.63;;
76837;SDS011;65797;47.352;8.164;2023-11-22T03:01:06;10.40;;;4.00;;
76837;SDS011;65797;47.352;8.164;2023-11-22T03:03:35;6.00;;;3.60;;
76837;SDS011;65797;47.352;8.164;2023-11-22T03:06:01;5.03;;;3.70;;
76837;SDS011;65797;47.352;8.164;2023-11-22T03:08:27;8.50;;;3.83;;
76837;SDS011;65797;47.352;8.164;2023-11-22T03:10:53;6.80;;;4.43;;
76837;SDS011;65797;47.352;8.164;2023-11-22T03:13:19;4.60;;;3.47;;
76837;SDS011;65797;47.352;8.164;2023-11-22T03:15:45;7.30;;;3.77;;
76837;SDS011;65797;47.352;8.164;2023-11-22T03:18:10;6.20;;;4.23;;
76837;SDS011;65797;47.352;8.164;2023-11-22T03:20:36;7.47;;;4.00;;
76837;SDS011;65797;47.352;8.164;2023-11-22T03:23:03;7.83;;;4.03;;
76837;SDS011;65797;47.352;8.164;2023-11-22T03:25:29;3.23;;;2.90;;
76837;SDS011;65797;47.352;8.164;2023-11-22T03:27:55;3.70;;;3.07;;
76837;SDS011;65797;47.352;8.164;2023-11-22T03:30:21;5.43;;;4.47;;
76837;SDS011;65797;47.352;8.164;2023-11-22T03:32:47;4.37;;;3.70;;
76837;SDS011;65797;47.352;8.164;2023-11-22T03:35:14;4.83;;;3.73;;
76837;SDS011;65797;47.352;8.164;2023-11-22T03:37:42;6.57;;;4.43;;
76837;SDS011;65797;47.352;8.164;2023-11-22T03:40:08;5.17;;;3.83;;
76837;SDS011;65797;47.352;8.164;2023-11-22T03:42:38;4.83;;;3.30;;
76837;SDS011;65797;47.352;8.164;2023-11-22T03:45:05;6.50;;;4.27;;
76837;SDS011;65797;47.352;8.164;2023-11-22T03:47:31;4.50;;;3.17;;
76837;SDS011;65797;47.352;8.164;2023-11-22T03:50:03;4.63;;;3.70;;
76837;SDS011;65797;47.352;8.164;2023-11-22T03:52:30;4.50;;;3.43;;
76837;SDS011;65797;47.352;8.164;2023-11-22T03:54:56;4.37;;;2.97;;
76837;SDS011;65797;47.352;8.164;2023-11-22T03:57:23;5.80;;;3.33;;
76837;SDS011;65797;47.352;8.164;2023-11-22T03:59:48;4.80;;;3.00;;
76837;SDS011;65797;47.352;8.164;2023-11-22T04:02:14;7.80;;;2.97;;
76837;SDS011;65797;47.352;8.164;2023-11-22T04:04:40;3.97;;;3.57;;
76837;SDS011;65797;47.352;8.164;2023-11-22T04:07:06;5.70;;;3.57;;
76837;SDS011;65797;47.352;8.164;2023-11-22T04:09:35;4.97;;;3.33;;
76837;SDS011;65797;47.352;8.164;2023-11-22T04:12:01;7.40;;;4.03;;
76837;SDS011;65797;47.352;8.164;2023-11-22T04:14:27;6.33;;;4.23;;
76837;SDS011;65797;47.352;8.164;2023-11-22T04:16:52;7.03;;;3.53;;
76837;SDS011;65797;47.352;8.164;2023-11-22T04:19:18;7.53;;;3.33;;
76837;SDS011;65797;47.352;8.164;2023-11-22T04:21:44;7.07;;;3.50;;
76837;SDS011;65797;47.352;8.164;2023-11-22T04:24:10;7.17;;;4.47;;
76837;SDS011;65797;47.352;8.164;2023-11-22T04:26:37;6.03;;;3.83;;
76837;SDS011;65797;47.352;8.164;2023-11-22T04:29:03;4.37;;;3.57;;
76837;SDS011;65797;47.352;8.164;2023-11-22T04:31:29;4.77;;;3.87;;
76837;SDS011;65797;47.352;8.164;2023-11-22T04:33:55;5.40;;;3.40;;
76837;SDS011;65797;47.352;8.164;2023-11-22T04:36:23;6.20;;;3.93;;
76837;SDS011;65797;47.352;8.164;2023-11-22T04:38:48;7.20;;;3.60;;
76837;SDS011;65797;47.352;8.164;2023-11-22T04:41:15;6.03;;;2.90;;
76837;SDS011;65797;47.352;8.164;2023-11-22T04:43:40;4.80;;;3.37;;
76837;SDS011;65797;47.352;8.164;2023-11-22T04:46:07;6.10;;;3.23;;
76837;SDS011;65797;47.352;8.164;2023-11-22T04:48:34;3.13;;;2.83;;
76837;SDS011;65797;47.352;8.164;2023-11-22T04:51:02;9.93;;;3.93;;
76837;SDS011;65797;47.352;8.164;2023-11-22T04:53:27;3.17;;;2.90;;
76837;SDS011;65797;47.352;8.164;2023-11-22T04:55:53;2.80;;;2.60;;
76837;SDS011;65797;47.352;8.164;2023-11-22T04:58:19;5.33;;;2.90;;
76837;SDS011;65797;47.352;8.164;2023-11-22T05:00:45;3.63;;;2.80;;
76837;SDS011;65797;47.352;8.164;2023-11-22T05:03:11;5.43;;;3.67;;
76837;SDS011;65797;47.352;8.164;2023-11-22T05:05:37;3.57;;;3.10;;
76837;SDS011;65797;47.352;8.164;2023-11-22T05:08:03;4.97;;;3.00;;
76837;SDS011;65797;47.352;8.164;2023-11-22T05:10:29;5.70;;;3.00;;
76837;SDS011;65797;47.352;8.164;2023-11-22T05:12:55;7.33;;;3.40;;
76837;SDS011;65797;47.352;8.164;2023-11-22T05:15:24;4.30;;;3.33;;
76837;SDS011;65797;47.352;8.164;2023-11-22T05:17:51;3.13;;;2.83;;
76837;SDS011;65797;47.352;8.164;2023-11-22T05:20:17;3.73;;;3.37;;
76837;SDS011;65797;47.352;8.164;2023-11-22T05:22:42;4.77;;;3.10;;
76837;SDS011;65797;47.352;8.164;2023-11-22T05:25:08;5.03;;;2.77;;
76837;SDS011;65797;47.352;8.164;2023-11-22T05:27:34;6.20;;;2.80;;
76837;SDS011;65797;47.352;8.164;2023-11-22T05:30:00;6.67;;;3.27;;
76837;SDS011;65797;47.352;8.164;2023-11-22T05:32:26;4.60;;;3.30;;
76837;SDS011;65797;47.352;8.164;2023-11-22T05:34:52;4.00;;;2.93;;
76837;SDS011;65797;47.352;8.164;2023-11-22T05:37:18;4.00;;;3.33;;
76837;SDS011;65797;47.352;8.164;2023-11-22T05:39:44;5.30;;;3.60;;
76837;SDS011;65797;47.352;8.164;2023-11-22T05:42:10;11.57;;;3.17;;
76837;SDS011;65797;47.352;8.164;2023-11-22T05:44:36;3.43;;;2.63;;
76837;SDS011;65797;47.352;8.164;2023-11-22T05:47:02;4.10;;;3.23;;
76837;SDS011;65797;47.352;8.164;2023-11-22T05:49:28;3.00;;;2.73;;
76837;SDS011;65797;47.352;8.164;2023-11-22T05:51:54;4.37;;;3.40;;
76837;SDS011;65797;47.352;8.164;2023-11-22T05:54:19;6.00;;;3.50;;
76837;SDS011;65797;47.352;8.164;2023-11-22T05:56:45;7.20;;;3.60;;
76837;SDS011;65797;47.352;8.164;2023-11-22T05:59:11;4.10;;;2.97;;
76837;SDS011;65797;47.352;8.164;2023-11-22T06:01:36;4.60;;;3.90;;
76837;SDS011;65797;47.352;8.164;2023-11-22T06:04:02;7.60;;;3.87;;
76837;SDS011;65797;47.352;8.164;2023-11-22T06:06:28;5.83;;;4.10;;
76837;SDS011;65797;47.352;8.164;2023-11-22T06:08:54;10.00;;;5.00;;
76837;SDS011;65797;47.352;8.164;2023-11-22T06:11:19;11.23;;;6.67;;
76837;SDS011;65797;47.352;8.164;2023-11-22T06:13:46;6.80;;;5.57;;
76837;SDS011;65797;47.352;8.164;2023-11-22T06:16:12;7.37;;;3.77;;
76837;SDS011;65797;47.352;8.164;2023-11-22T06:18:38;9.10;;;3.80;;
76837;SDS011;65797;47.352;8.164;2023-11-22T06:21:06;7.73;;;3.80;;
76837;SDS011;65797;47.352;8.164;2023-11-22T06:23:33;6.43;;;3.57;;
76837;SDS011;65797;47.352;8.164;2023-11-22T06:25:59;5.60;;;3.67;;
76837;SDS011;65797;47.352;8.164;2023-11-22T06:28:24;12.83;;;7.37;;
76837;SDS011;65797;47.352;8.164;2023-11-22T06:30:50;13.30;;;5.10;;
76837;SDS011;65797;47.352;8.164;2023-11-22T06:33:16;8.80;;;5.07;;
76837;SDS011;65797;47.352;8.164;2023-11-22T06:35:41;9.17;;;4.07;;
76837;SDS011;65797;47.352;8.164;2023-11-22T06:38:08;8.47;;;4.10;;
76837;SDS011;65797;47.352;8.164;2023-11-22T06:40:33;7.67;;;3.70;;
76837;SDS011;65797;47.352;8.164;2023-11-22T06:42:59;9.27;;;3.77;;
76837;SDS011;65797;47.352;8.164;2023-11-22T06:45:25;6.27;;;3.83;;
76837;SDS011;65797;47.352;8.164;2023-11-22T06:47:54;3.50;;;3.07;;
76837;SDS011;65797;47.352;8.164;2023-11-22T06:50:26;5.47;;;3.03;;
76837;SDS011;65797;47.352;8.164;2023-11-22T06:52:52;3.23;;;2.77;;
76837;SDS011;65797;47.352;8.164;2023-11-22T06:55:18;3.37;;;2.37;;
76837;SDS011;65797;47.352;8.164;2023-11-22T06:57:44;2.20;;;1.93;;
76837;SDS011;65797;47.352;8.164;2023-11-22T07:00:10;4.30;;;1.80;;
76837;SDS011;65797;47.352;8.164;2023-11-22T07:02:37;2.37;;;2.17;;
76837;SDS011;65797;47.352;8.164;2023-11-22T07:05:03;3.20;;;2.33;;
76837;SDS011;65797;47.352;8.164;2023-11-22T07:07:35;5.27;;;2.10;;
76837;SDS011;65797;47.352;8.164;2023-11-22T07:10:02;3.00;;;1.83;;
76837;SDS011;65797;47.352;8.164;2023-11-22T07:12:30;1.30;;;1.20;;
76837;SDS011;65797;47.352;8.164;2023-11-22T07:14:56;1.17;;;1.17;;
76837;SDS011;65797;47.352;8.164;2023-11-22T07:17:22;1.57;;;1.47;;
76837;SDS011;65797;47.352;8.164;2023-11-22T07:19:48;2.93;;;1.60;;
76837;SDS011;65797;47.352;8.164;2023-11-22T07:22:14;1.47;;;1.43;;
76837;SDS011;65797;47.352;8.164;2023-11-22T07:24:47;1.10;;;1.10;;
76837;SDS011;65797;47.352;8.164;2023-11-22T07:27:16;1.90;;;1.40;;
76837;SDS011;65797;47.352;8.164;2023-11-22T07:29:43;1.80;;;1.70;;
76837;SDS011;65797;47.352;8.164;2023-11-22T07:32:10;1.67;;;1.57;;
76837;SDS011;65797;47.352;8.164;2023-11-22T07:34:37;1.70;;;1.60;;
76837;SDS011;65797;47.352;8.164;2023-11-22T07:37:04;1.50;;;1.40;;
76837;SDS011;65797;47.352;8.164;2023-11-22T07:39:36;1.70;;;1.30;;
76837;SDS011;65797;47.352;8.164;2023-11-22T07:42:03;1.77;;;1.30;;
76837;SDS011;65797;47.352;8.164;2023-11-22T07:44:32;1.70;;;1.60;;
76837;SDS011;65797;47.352;8.164;2023-11-22T07:47:00;1.83;;;1.70;;
76837;SDS011;65797;47.352;8.164;2023-11-22T07:49:27;2.23;;;1.60;;
76837;SDS011;65797;47.352;8.164;2023-11-22T07:51:54;1.80;;;1.53;;
76837;SDS011;65797;47.352;8.164;2023-11-22T07:54:21;2.03;;;1.70;;
76837;SDS011;65797;47.352;8.164;2023-11-22T07:56:50;1.50;;;1.40;;
76837;SDS011;65797;47.352;8.164;2023-11-22T07:59:19;1.57;;;1.43;;
76837;SDS011;65797;47.352;8.164;2023-11-22T08:01:45;2.13;;;1.57;;
76837;SDS011;65797;47.352;8.164;2023-11-22T08:04:14;1.50;;;1.40;;
76837;SDS011;65797;47.352;8.164;2023-11-22T08:06:43;5.83;;;1.30;;
76837;SDS011;65797;47.352;8.164;2023-11-22T08:09:09;1.23;;;1.13;;
76837;SDS011;65797;47.352;8.164;2023-11-22T08:11:35;1.03;;;0.93;;
76837;SDS011;65797;47.352;8.164;2023-11-22T08:14:02;1.43;;;1.10;;
76837;SDS011;65797;47.352;8.164;2023-11-22T08:16:28;0.80;;;0.80;;
76837;SDS011;65797;47.352;8.164;2023-11-22T08:18:54;1.03;;;1.03;;
76837;SDS011;65797;47.352;8.164;2023-11-22T08:23:57;1.10;;;1.10;;
76837;SDS011;65797;47.352;8.164;2023-11-22T08:26:23;0.90;;;0.90;;
76837;SDS011;65797;47.352;8.164;2023-11-22T08:28:50;1.10;;;1.10;;
76837;SDS011;65797;47.352;8.164;2023-11-22T08:31:16;0.80;;;0.80;;
76837;SDS011;65797;47.352;8.164;2023-11-22T08:33:42;1.13;;;0.80;;
76837;SDS011;65797;47.352;8.164;2023-11-22T08:38:43;0.80;;;0.80;;
76837;SDS011;65797;47.352;8.164;2023-11-22T08:41:10;0.90;;;0.90;;
76837;SDS011;65797;47.352;8.164;2023-11-22T08:46:13;1.40;;;1.30;;
76837;SDS011;65797;47.352;8.164;2023-11-22T08:48:39;1.20;;;1.10;;
76837;SDS011;65797;47.352;8.164;2023-11-22T08:51:06;1.20;;;1.10;;
76837;SDS011;65797;47.352;8.164;2023-11-22T08:53:32;1.03;;;1.03;;
76837;SDS011;65797;47.352;8.164;2023-11-22T08:55:58;0.97;;;0.97;;
76837;SDS011;65797;47.352;8.164;2023-11-22T08:58:24;1.07;;;1.07;;
76837;SDS011;65797;47.352;8.164;2023-11-22T09:00:50;1.30;;;1.20;;
76837;SDS011;65797;47.352;8.164;2023-11-22T09:03:16;1.20;;;1.20;;
76837;SDS011;65797;47.352;8.164;2023-11-22T09:05:42;2.83;;;1.60;;
76837;SDS011;65797;47.352;8.164;2023-11-22T09:08:09;1.60;;;1.50;;
76837;SDS011;65797;47.352;8.164;2023-11-22T09:10:40;1.53;;;1.43;;
76837;SDS011;65797;47.352;8.164;2023-11-22T09:15:42;2.80;;;1.33;;
76837;SDS011;65797;47.352;8.164;2023-11-22T09:18:09;1.70;;;1.60;;
76837;SDS011;65797;47.352;8.164;2023-11-22T09:20:37;1.60;;;1.50;;
76837;SDS011;65797;47.352;8.164;2023-11-22T09:23:03;1.80;;;1.70;;
76837;SDS011;65797;47.352;8.164;2023-11-22T09:25:29;1.50;;;1.37;;
76837;SDS011;65797;47.352;8.164;2023-11-22T09:27:58;1.60;;;1.50;;
76837;SDS011;65797;47.352;8.164;2023-11-22T09:30:27;1.50;;;1.40;;
76837;SDS011;65797;47.352;8.164;2023-11-22T09:35:34;1.33;;;1.33;;
76837;SDS011;65797;47.352;8.164;2023-11-22T09:38:00;2.03;;;1.93;;
76837;SDS011;65797;47.352;8.164;2023-11-22T09:40:27;1.73;;;1.30;;
76837;SDS011;65797;47.352;8.164;2023-11-22T09:43:01;1.70;;;1.60;;
76837;SDS011;65797;47.352;8.164;2023-11-22T09:45:27;1.90;;;1.47;;
76837;SDS011;65797;47.352;8.164;2023-11-22T09:47:57;2.93;;;1.60;;
76837;SDS011;65797;47.352;8.164;2023-11-22T09:58:18;2.00;;;1.70;;
76837;SDS011;65797;47.352;8.164;2023-11-22T10:05:57;1.47;;;1.47;;
76837;SDS011;65797;47.352;8.164;2023-11-22T10:08:29;1.63;;;1.53;;
76837;SDS011;65797;47.352;8.164;2023-11-22T10:10:55;1.67;;;1.57;;
76837;SDS011;65797;47.352;8.164;2023-11-22T10:13:21;2.20;;;2.00;;
76837;SDS011;65797;47.352;8.164;2023-11-22T10:15:48;2.77;;;1.93;;
76837;SDS011;65797;47.352;8.164;2023-11-22T10:18:18;1.90;;;1.80;;
76837;SDS011;65797;47.352;8.164;2023-11-22T10:20:49;1.87;;;1.70;;
76837;SDS011;65797;47.352;8.164;2023-11-22T10:23:18;2.27;;;1.70;;
76837;SDS011;65797;47.352;8.164;2023-11-22T10:25:50;2.13;;;2.00;;
76837;SDS011;65797;47.352;8.164;2023-11-22T10:28:21;3.00;;;2.40;;
76837;SDS011;65797;47.352;8.164;2023-11-22T10:30:50;2.37;;;2.17;;
76837;SDS011;65797;47.352;8.164;2023-11-22T10:33:17;2.20;;;2.10;;
76837;SDS011;65797;47.352;8.164;2023-11-22T10:35:48;3.03;;;2.23;;
76837;SDS011;65797;47.352;8.164;2023-11-22T10:38:15;3.40;;;2.30;;
76837;SDS011;65797;47.352;8.164;2023-11-22T10:40:41;3.30;;;2.70;;
76837;SDS011;65797;47.352;8.164;2023-11-22T10:43:10;3.17;;;2.30;;
76837;SDS011;65797;47.352;8.164;2023-11-22T10:45:37;2.03;;;1.87;;
76837;SDS011;65797;47.352;8.164;2023-11-22T10:48:04;3.77;;;2.63;;
76837;SDS011;65797;47.352;8.164;2023-11-22T10:50:31;2.43;;;2.23;;
76837;SDS011;65797;47.352;8.164;2023-11-22T10:52:57;3.40;;;2.57;;
76837;SDS011;65797;47.352;8.164;2023-11-22T10:55:30;3.27;;;2.50;;
76837;SDS011;65797;47.352;8.164;2023-11-22T10:58:00;3.70;;;2.43;;
76837;SDS011;65797;47.352;8.164;2023-11-22T11:00:27;2.50;;;2.30;;
76837;SDS011;65797;47.352;8.164;2023-11-22T11:02:59;5.40;;;2.60;;
76837;SDS011;65797;47.352;8.164;2023-11-22T11:05:33;2.90;;;2.27;;
76837;SDS011;65797;47.352;8.164;2023-11-22T11:10:41;3.63;;;2.33;;
76837;SDS011;65797;47.352;8.164;2023-11-22T11:13:08;3.43;;;2.43;;
76837;SDS011;65797;47.352;8.164;2023-11-22T11:18:10;3.33;;;2.30;;
76837;SDS011;65797;47.352;8.164;2023-11-22T11:20:45;3.80;;;2.13;;
76837;SDS011;65797;47.352;8.164;2023-11-22T11:23:22;2.37;;;1.93;;
76837;SDS011;65797;47.352;8.164;2023-11-22T11:49:14;2.30;;;2.10;;
76837;SDS011;65797;47.352;8.164;2023-11-22T11:51:40;2.03;;;1.77;;
76837;SDS011;65797;47.352;8.164;2023-11-22T11:54:06;2.37;;;2.00;;
76837;SDS011;65797;47.352;8.164;2023-11-22T11:59:09;3.53;;;1.40;;
76837;SDS011;65797;47.352;8.164;2023-11-22T12:01:36;1.97;;;1.60;;
76837;SDS011;65797;47.352;8.164;2023-11-22T12:04:02;1.57;;;1.47;;
76837;SDS011;65797;47.352;8.164;2023-11-22T12:06:28;1.73;;;1.60;;
76837;SDS011;65797;47.352;8.164;2023-11-22T12:14:12;1.70;;;1.60;;
76837;SDS011;65797;47.352;8.164;2023-11-22T12:16:38;1.73;;;1.63;;
76837;SDS011;65797;47.352;8.164;2023-11-22T12:24:15;1.90;;;1.53;;
76837;SDS011;65797;47.352;8.164;2023-11-22T12:26:44;1.67;;;1.50;;
76837;SDS011;65797;47.352;8.164;2023-11-22T12:31:51;2.47;;;1.90;;
76837;SDS011;65797;47.352;8.164;2023-11-22T12:34:22;1.30;;;1.20;;
76837;SDS011;65797;47.352;8.164;2023-11-22T12:36:48;2.00;;;1.50;;
76837;SDS011;65797;47.352;8.164;2023-11-22T12:39:14;4.43;;;1.83;;
76837;SDS011;65797;47.352;8.164;2023-11-22T12:41:44;12.10;;;3.20;;
76837;SDS011;65797;47.352;8.164;2023-11-22T12:44:12;4.40;;;3.27;;
76837;SDS011;65797;47.352;8.164;2023-11-22T12:46:47;3.90;;;3.40;;
76837;SDS011;65797;47.352;8.164;2023-11-22T12:49:24;3.80;;;3.50;;
76837;SDS011;65797;47.352;8.164;2023-11-22T12:51:56;4.17;;;3.70;;
76837;SDS011;65797;47.352;8.164;2023-11-22T12:54:22;4.00;;;3.60;;
76837;SDS011;65797;47.352;8.164;2023-11-22T12:56:49;6.10;;;4.70;;
76837;SDS011;65797;47.352;8.164;2023-11-22T12:59:23;4.43;;;4.03;;
76837;SDS011;65797;47.352;8.164;2023-11-22T13:01:52;6.80;;;4.27;;
76837;SDS011;65797;47.352;8.164;2023-11-22T13:04:19;5.80;;;5.10;;
76837;SDS011;65797;47.352;8.164;2023-11-22T13:06:45;5.90;;;4.80;;
76837;SDS011;65797;47.352;8.164;2023-11-22T13:09:11;5.77;;;4.73;;
76837;SDS011;65797;47.352;8.164;2023-11-22T13:11:43;7.03;;;5.53;;
76837;SDS011;65797;47.352;8.164;2023-11-22T13:14:09;6.03;;;4.60;;
76837;SDS011;65797;47.352;8.164;2023-11-22T13:16:35;4.87;;;3.73;;
76837;SDS011;65797;47.352;8.164;2023-11-22T13:19:03;4.80;;;3.50;;
76837;SDS011;65797;47.352;8.164;2023-11-22T13:21:29;3.30;;;3.03;;
76837;SDS011;65797;47.352;8.164;2023-11-22T13:23:56;4.20;;;3.60;;
76837;SDS011;65797;47.352;8.164;2023-11-22T13:26:24;5.00;;;3.50;;
76837;SDS011;65797;47.352;8.164;2023-11-22T13:28:50;4.07;;;3.03;;
76837;SDS011;65797;47.352;8.164;2023-11-22T13:31:17;4.50;;;3.10;;
76837;SDS011;65797;47.352;8.164;2023-11-22T13:33:43;3.03;;;2.73;;
76837;SDS011;65797;47.352;8.164;2023-11-22T13:36:09;3.53;;;2.93;;
76837;SDS011;65797;47.352;8.164;2023-11-22T13:38:36;4.10;;;2.50;;
76837;SDS011;65797;47.352;8.164;2023-11-22T13:41:03;5.00;;;2.50;;
76837;SDS011;65797;47.352;8.164;2023-11-22T13:43:29;2.60;;;2.40;;
76837;SDS011;65797;47.352;8.164;2023-11-22T13:45:56;2.40;;;2.20;;
76837;SDS011;65797;47.352;8.164;2023-11-22T13:48:21;5.97;;;2.40;;
76837;SDS011;65797;47.352;8.164;2023-11-22T13:50:49;4.00;;;2.07;;
76837;SDS011;65797;47.352;8.164;2023-11-22T13:53:14;3.40;;;2.70;;
76837;SDS011;65797;47.352;8.164;2023-11-22T13:55:42;1.90;;;1.80;;
76837;SDS011;65797;47.352;8.164;2023-11-22T13:58:08;3.87;;;3.13;;
76837;SDS011;65797;47.352;8.164;2023-11-22T14:00:34;2.93;;;2.67;;
76837;SDS011;65797;47.352;8.164;2023-11-22T14:03:00;2.37;;;2.07;;
76837;SDS011;65797;47.352;8.164;2023-11-22T14:05:36;2.30;;;2.10;;
76837;SDS011;65797;47.352;8.164;2023-11-22T14:08:03;3.00;;;2.60;;
76837;SDS011;65797;47.352;8.164;2023-11-22T14:10:31;3.17;;;2.37;;
76837;SDS011;65797;47.352;8.164;2023-11-22T14:12:58;3.40;;;2.37;;
76837;SDS011;65797;47.352;8.164;2023-11-22T14:15:25;2.10;;;1.90;;
76837;SDS011;65797;47.352;8.164;2023-11-22T14:17:55;3.57;;;2.27;;
76837;SDS011;65797;47.352;8.164;2023-11-22T14:20:20;2.83;;;2.23;;
